createdAt,value
2023-04-14T00:00:55.033Z,1.38
2023-04-14T00:03:22.114Z,0.75
2023-04-14T00:05:48.745Z,1.40
2023-04-14T00:08:15.442Z,1.58
2023-04-14T00:10:41.951Z,0.68
2023-04-14T00:13:08.497Z,1.10
2023-04-14T00:15:34.993Z,1.08
2023-04-14T00:18:01.658Z,1.83
2023-04-14T00:20:28.287Z,1.25
2023-04-14T00:22:54.806Z,1.40
2023-04-14T00:25:21.439Z,1.08
2023-04-14T00:27:47.927Z,0.85
2023-04-14T00:30:15.367Z,1.08
2023-04-14T00:32:41.952Z,1.08
2023-04-14T00:35:08.553Z,1.15
2023-04-14T00:37:35.117Z,1.30
2023-04-14T00:40:01.691Z,1.40
2023-04-14T00:42:28.165Z,1.25
2023-04-14T00:44:54.675Z,1.20
2023-04-14T00:47:23.120Z,1.20
2023-04-14T00:49:51.007Z,0.90
2023-04-14T00:52:18.713Z,0.77
2023-04-14T00:54:45.325Z,1.00
2023-04-14T00:57:11.846Z,0.98
2023-04-14T00:59:38.414Z,1.20
2023-04-14T01:02:05.052Z,1.10
2023-04-14T01:04:45.157Z,0.88
2023-04-14T01:07:19.694Z,1.33
2023-04-14T01:09:46.207Z,1.17
2023-04-14T01:12:20.971Z,0.80
2023-04-14T01:14:51.057Z,0.85
2023-04-14T01:17:35.606Z,0.85
2023-04-14T01:20:20.651Z,1.30
2023-04-14T01:22:57.595Z,1.08
2023-04-14T01:25:36.490Z,1.00
2023-04-14T01:28:09.350Z,1.00
2023-04-14T01:30:45.327Z,0.98
2023-04-14T01:33:15.491Z,1.08
2023-04-14T01:35:47.171Z,1.38
2023-04-14T01:38:18.398Z,0.80
2023-04-14T01:43:12.372Z,0.85
2023-04-14T01:45:42.003Z,1.30
2023-04-14T01:48:09.189Z,1.10
2023-04-14T01:50:37.133Z,0.82
2023-04-14T01:53:06.550Z,1.02
2023-04-14T01:55:34.598Z,0.60
2023-04-14T01:58:01.853Z,0.70
2023-04-14T02:00:29.924Z,1.63
2023-04-14T02:03:01.417Z,0.93
2023-04-14T02:05:30.903Z,0.80
2023-04-14T02:07:59.597Z,1.30
2023-04-14T02:10:26.602Z,0.95
2023-04-14T02:12:55.567Z,0.90
2023-04-14T02:15:22.443Z,1.23
2023-04-14T02:17:51.004Z,1.58
2023-04-14T02:20:18.454Z,1.73
2023-04-14T02:22:45.343Z,1.27
2023-04-14T02:25:11.902Z,1.83
2023-04-14T02:27:46.243Z,2.50
2023-04-14T02:30:14.658Z,2.05
2023-04-14T02:32:46.150Z,2.42
2023-04-14T02:35:16.901Z,2.65
2023-04-14T02:37:50.682Z,2.45
2023-04-14T02:40:20.305Z,3.00
2023-04-14T02:42:48.487Z,1.70
2023-04-14T02:45:19.157Z,1.73
2023-04-14T02:47:47.743Z,1.85
2023-04-14T02:50:15.897Z,3.97
2023-04-14T02:52:51.684Z,1.50
2023-04-14T02:55:21.785Z,1.38
2023-04-14T02:57:51.646Z,1.27
2023-04-14T03:00:18.950Z,1.85
2023-04-14T03:05:16.140Z,0.90
2023-04-14T03:08:00.242Z,0.98
2023-04-14T03:10:26.917Z,1.20
2023-04-14T03:12:56.279Z,0.70
2023-04-14T03:15:24.683Z,0.90
2023-04-14T03:17:55.894Z,1.15
2023-04-14T03:20:23.929Z,1.50
2023-04-14T03:23:04.939Z,1.35
2023-04-14T03:25:37.992Z,1.73
2023-04-14T03:28:09.943Z,1.25
2023-04-14T03:30:41.500Z,0.93
2023-04-14T03:33:09.038Z,1.63
2023-04-14T03:35:36.497Z,1.58
2023-04-14T03:38:08.382Z,1.40
2023-04-14T03:40:38.268Z,2.20
2023-04-14T03:43:09.837Z,0.80
2023-04-14T03:45:41.583Z,1.08
2023-04-14T03:48:11.951Z,0.90
2023-04-14T03:50:45.742Z,0.82
2023-04-14T03:53:14.342Z,1.08
2023-04-14T03:55:42.378Z,0.63
2023-04-14T03:58:11.483Z,0.88
2023-04-14T04:00:39.934Z,1.63
2023-04-14T04:03:06.763Z,1.20
2023-04-14T04:05:34.100Z,1.02
2023-04-14T04:08:03.593Z,1.20
2023-04-14T04:10:32.853Z,1.48
2023-04-14T04:13:01.175Z,1.52
2023-04-14T04:15:31.892Z,2.03
2023-04-14T04:20:25.170Z,2.30
2023-04-14T04:22:53.530Z,2.83
2023-04-14T04:25:20.602Z,1.60
2023-04-14T04:27:56.532Z,1.25
2023-04-14T04:30:24.052Z,1.60
2023-04-14T04:32:51.333Z,1.92
2023-04-14T04:35:18.424Z,1.77
2023-04-14T04:37:48.476Z,2.87
2023-04-14T04:40:15.659Z,2.55
2023-04-14T04:42:43.230Z,2.85
2023-04-14T04:45:13.147Z,2.22
2023-04-14T04:47:41.369Z,1.73
2023-04-14T04:50:08.051Z,2.10
2023-04-14T04:52:34.663Z,2.53
2023-04-14T04:55:01.142Z,3.05
2023-04-14T04:57:27.761Z,1.92
2023-04-14T04:59:54.207Z,2.22
2023-04-14T05:02:20.931Z,1.65
2023-04-14T05:04:48.787Z,2.15
2023-04-14T05:07:15.528Z,1.60
2023-04-14T05:09:42.012Z,2.05
2023-04-14T05:12:08.527Z,2.03
2023-04-14T05:14:35.715Z,1.90
2023-04-14T05:17:02.496Z,1.77
2023-04-14T05:19:28.964Z,1.52
2023-04-14T05:21:55.783Z,1.90
2023-04-14T05:24:22.298Z,8.43
2023-04-14T05:27:09.340Z,10.20
2023-04-14T05:29:35.415Z,5.18
2023-04-14T05:32:02.229Z,3.63
2023-04-14T05:34:28.852Z,2.05
2023-04-14T05:36:55.454Z,2.50
2023-04-14T05:39:21.980Z,3.80
2023-04-14T05:41:48.461Z,2.90
2023-04-14T05:44:14.995Z,2.45
2023-04-14T05:46:41.619Z,2.75
2023-04-14T05:49:08.181Z,3.70
2023-04-14T05:51:34.829Z,5.15
2023-04-14T05:54:01.442Z,3.00
2023-04-14T05:56:28.239Z,1.83
2023-04-14T05:58:55.847Z,1.92
2023-04-14T06:01:22.318Z,1.90
2023-04-14T06:03:48.961Z,3.00
2023-04-14T06:06:15.829Z,2.65
2023-04-14T06:08:42.381Z,2.30
2023-04-14T06:11:08.914Z,2.00
2023-04-14T06:13:36.439Z,2.70
2023-04-14T06:16:03.425Z,2.38
2023-04-14T06:18:30.085Z,2.08
2023-04-14T06:20:56.545Z,2.38
2023-04-14T06:23:24.651Z,2.90
2023-04-14T06:25:52.306Z,2.97
2023-04-14T06:28:20.078Z,3.83
2023-04-14T06:30:46.572Z,3.33
2023-04-14T06:33:13.098Z,3.58
2023-04-14T06:35:39.626Z,3.30
2023-04-14T06:38:06.122Z,3.58
2023-04-14T06:40:32.591Z,4.35
2023-04-14T06:42:59.317Z,2.97
2023-04-14T06:45:26.184Z,2.60
2023-04-14T06:47:52.758Z,2.72
2023-04-14T06:50:19.510Z,4.20
2023-04-14T06:52:46.302Z,6.68
2023-04-14T06:55:13.326Z,6.82
2023-04-14T06:57:39.884Z,6.45
2023-04-14T07:00:07.274Z,4.95
2023-04-14T07:02:33.975Z,5.32
2023-04-14T07:05:00.593Z,6.47
2023-04-14T07:07:27.169Z,6.63
2023-04-14T07:09:53.855Z,5.82
2023-04-14T07:12:20.691Z,6.93
2023-04-14T07:14:51.968Z,5.80
2023-04-14T07:17:19.139Z,6.20
2023-04-14T07:19:46.165Z,6.30
2023-04-14T07:22:12.737Z,7.63
2023-04-14T07:24:39.353Z,6.30
2023-04-14T07:27:07.389Z,8.02
2023-04-14T07:29:34.328Z,7.10
2023-04-14T07:32:01.343Z,7.07
2023-04-14T07:34:27.882Z,5.13
2023-04-14T07:36:54.460Z,4.55
2023-04-14T07:39:23.625Z,3.17
2023-04-14T07:41:50.533Z,3.83
2023-04-14T07:44:17.038Z,3.25
2023-04-14T07:46:43.953Z,3.28
2023-04-14T07:49:10.721Z,2.95
2023-04-14T07:51:37.245Z,3.25
2023-04-14T07:54:05.943Z,3.38
2023-04-14T07:56:32.718Z,2.58
2023-04-14T07:58:59.437Z,1.90
2023-04-14T08:01:26.145Z,2.05
2023-04-14T08:03:52.847Z,1.80
2023-04-14T08:06:20.501Z,1.75
2023-04-14T08:08:47.770Z,2.28
2023-04-14T08:11:14.316Z,2.25
2023-04-14T08:13:40.790Z,2.03
2023-04-14T08:16:07.458Z,1.88
2023-04-14T08:18:33.895Z,2.30
2023-04-14T08:21:00.750Z,1.52
2023-04-14T08:23:27.277Z,1.70
2023-04-14T08:25:54.257Z,2.08
2023-04-14T08:28:21.143Z,2.47
2023-04-14T08:30:49.352Z,1.48
2023-04-14T08:33:15.954Z,2.20
2023-04-14T08:35:43.784Z,1.85
2023-04-14T08:38:10.864Z,2.65
2023-04-14T08:40:38.867Z,3.03
2023-04-14T08:43:05.759Z,1.85
2023-04-14T08:45:33.035Z,2.33
2023-04-14T08:48:00.596Z,2.00
2023-04-14T08:50:31.973Z,2.33
2023-04-14T08:53:00.474Z,2.83
2023-04-14T09:12:33.812Z,1.40
2023-04-14T09:15:01.180Z,1.30
2023-04-14T09:17:28.373Z,1.17
2023-04-14T09:20:38.937Z,1.27
2023-04-14T09:22:41.713Z,0.82
2023-04-14T09:25:10.124Z,1.80
2023-04-14T09:27:36.974Z,0.75
2023-04-14T09:30:03.670Z,1.35
2023-04-14T09:32:30.749Z,1.27
2023-04-14T09:34:58.480Z,0.70
2023-04-14T09:37:25.664Z,0.60
2023-04-14T09:39:53.813Z,1.42
2023-04-14T09:42:21.204Z,2.20
2023-04-14T09:44:57.291Z,1.58
2023-04-14T09:47:24.773Z,1.23
2023-04-14T09:50:03.399Z,0.98
2023-04-14T09:52:38.056Z,0.65
2023-04-14T09:55:07.498Z,1.00
2023-04-14T09:57:35.635Z,0.50
2023-04-14T10:00:02.228Z,0.80
2023-04-14T10:02:28.927Z,0.50
2023-04-14T10:05:06.237Z,0.82
2023-04-14T10:07:33.827Z,1.13
2023-04-14T10:10:05.961Z,0.98
2023-04-14T10:12:32.746Z,0.63
2023-04-14T10:15:00.190Z,0.75
2023-04-14T10:17:29.472Z,0.55
2023-04-14T10:19:56.914Z,0.45
2023-04-14T10:22:23.795Z,0.70
2023-04-14T10:24:51.344Z,0.60
2023-04-14T10:27:18.191Z,1.05
2023-04-14T10:29:44.717Z,0.70
2023-04-14T10:32:13.810Z,0.60
2023-04-14T10:34:53.364Z,0.55
2023-04-14T10:37:19.980Z,0.80
2023-04-14T10:39:54.430Z,0.70
2023-04-14T10:42:21.192Z,1.48
2023-04-14T10:45:01.253Z,0.60
2023-04-14T10:47:28.168Z,0.70
2023-04-14T10:49:56.780Z,1.13
2023-04-14T10:52:26.438Z,0.70
2023-04-14T10:55:07.678Z,0.83
2023-04-14T10:57:41.142Z,1.02
2023-04-14T11:00:28.554Z,1.00
2023-04-14T11:02:55.924Z,0.80
2023-04-14T11:05:22.686Z,0.40
2023-04-14T11:07:52.207Z,0.63
2023-04-14T11:10:24.905Z,1.50
2023-04-14T11:12:56.347Z,0.68
2023-04-14T11:15:23.252Z,0.77
2023-04-14T11:17:50.922Z,0.60
2023-04-14T11:20:23.766Z,0.75
2023-04-14T11:22:51.349Z,0.40
2023-04-14T11:25:20.811Z,0.70
2023-04-14T11:27:49.750Z,0.50
2023-04-14T11:30:19.658Z,0.65
2023-04-14T11:32:51.643Z,0.70
2023-04-14T11:35:18.635Z,0.47
2023-04-14T11:37:46.152Z,0.40
2023-04-14T11:40:13.424Z,1.05
2023-04-14T11:42:49.185Z,0.35
2023-04-14T11:45:16.024Z,0.65
2023-04-14T11:48:01.783Z,1.50
2023-04-14T11:50:31.328Z,0.50
2023-04-14T11:52:59.593Z,0.50
2023-04-14T11:55:29.378Z,0.70
2023-04-14T11:57:56.429Z,0.40
2023-04-14T12:00:22.994Z,0.30
2023-04-14T12:02:49.798Z,1.95
2023-04-14T12:05:30.079Z,0.50
2023-04-14T12:08:00.421Z,0.38
2023-04-14T12:10:27.620Z,0.47
2023-04-14T12:13:00.954Z,0.43
2023-04-14T12:15:28.490Z,0.77
2023-04-14T12:17:56.490Z,0.90
2023-04-14T12:20:23.665Z,0.60
2023-04-14T12:22:50.932Z,1.27
2023-04-14T12:25:17.708Z,0.52
2023-04-14T12:27:50.737Z,0.63
2023-04-14T12:30:20.864Z,0.50
2023-04-14T12:32:47.668Z,0.30
2023-04-14T12:35:14.194Z,0.90
2023-04-14T12:37:47.022Z,1.20
2023-04-14T12:40:13.613Z,0.95
2023-04-14T12:42:47.749Z,0.60
2023-04-14T12:45:14.629Z,0.43
2023-04-14T12:47:41.319Z,0.60
2023-04-14T12:50:30.295Z,0.63
2023-04-14T12:52:57.224Z,0.65
2023-04-14T12:55:24.791Z,0.60
2023-04-14T12:57:52.692Z,0.77
2023-04-14T13:00:19.546Z,0.47
2023-04-14T13:02:47.042Z,1.00
2023-04-14T13:05:13.844Z,0.60
2023-04-14T13:07:40.409Z,0.80
2023-04-14T13:10:07.420Z,0.75
2023-04-14T13:12:33.994Z,0.75
2023-04-14T13:15:01.033Z,0.60
2023-04-14T13:17:27.681Z,1.20
2023-04-14T13:19:55.415Z,0.40
2023-04-14T13:22:22.357Z,0.73
2023-04-14T13:24:50.001Z,0.93
2023-04-14T13:27:17.147Z,0.63
2023-04-14T13:29:43.598Z,0.55
2023-04-14T13:32:11.125Z,0.80
2023-04-14T13:34:38.496Z,0.90
2023-04-14T13:37:05.359Z,0.80
2023-04-14T13:39:32.084Z,0.73
2023-04-14T13:41:58.699Z,0.80
2023-04-14T13:44:25.212Z,1.30
2023-04-14T13:46:52.014Z,1.27
2023-04-14T13:49:18.535Z,0.70
2023-04-14T13:51:45.003Z,0.60
2023-04-14T13:54:11.430Z,1.17
2023-04-14T13:56:38.005Z,1.02
2023-04-14T13:59:04.826Z,0.52
2023-04-14T14:01:31.752Z,0.98
2023-04-14T14:03:58.560Z,0.70
2023-04-14T14:06:26.506Z,1.42
2023-04-14T14:09:05.670Z,1.55
2023-04-14T14:11:32.444Z,0.60
2023-04-14T14:13:58.947Z,0.70
2023-04-14T14:18:54.834Z,0.73
2023-04-14T14:21:21.575Z,0.80
2023-04-14T14:23:49.045Z,0.68
2023-04-14T14:26:15.920Z,0.80
2023-04-14T14:28:42.736Z,0.93
2023-04-14T14:31:09.357Z,0.68
2023-04-14T14:33:35.859Z,1.10
2023-04-14T14:36:02.753Z,0.95
2023-04-14T14:38:29.298Z,0.75
2023-04-14T14:40:55.984Z,0.70
2023-04-14T14:43:22.381Z,0.80
2023-04-14T14:45:48.964Z,0.70
2023-04-14T14:48:16.593Z,0.65
2023-04-14T14:50:43.258Z,0.90
2023-04-14T14:53:09.840Z,1.45
2023-04-14T14:55:36.336Z,0.77
2023-04-14T14:58:03.884Z,0.80
2023-04-14T15:00:30.450Z,0.70
2023-04-14T15:02:57.120Z,1.23
2023-04-14T15:05:23.781Z,0.93
2023-04-14T15:07:50.977Z,1.27
2023-04-14T15:10:17.653Z,0.80
2023-04-14T15:12:44.056Z,0.60
2023-04-14T15:15:10.910Z,0.90
2023-04-14T15:17:37.788Z,1.13
2023-04-14T15:20:04.910Z,0.90
2023-04-14T15:22:32.092Z,0.85
2023-04-14T15:24:58.653Z,0.70
2023-04-14T15:27:25.414Z,1.40
2023-04-14T15:29:51.981Z,1.42
2023-04-14T15:32:24.339Z,1.80
2023-04-14T15:34:54.263Z,1.80
2023-04-14T15:37:20.989Z,2.00
2023-04-14T15:39:47.463Z,1.67
2023-04-14T15:42:14.084Z,2.10
2023-04-14T15:44:40.776Z,2.13
2023-04-14T15:47:07.333Z,2.25
2023-04-14T15:49:33.846Z,2.10
2023-04-14T15:52:00.279Z,2.20
2023-04-14T15:54:26.889Z,1.60
2023-04-14T15:56:53.428Z,1.80
2023-04-14T15:59:21.023Z,1.63
2023-04-14T16:01:47.731Z,1.92
2023-04-14T16:04:14.347Z,2.08
2023-04-14T16:06:40.950Z,2.38
2023-04-14T16:09:07.433Z,1.52
2023-04-14T16:11:33.994Z,0.90
2023-04-14T16:14:01.192Z,1.10
2023-04-14T16:16:28.457Z,1.17
2023-04-14T16:18:55.021Z,1.20
2023-04-14T16:21:21.534Z,0.93
2023-04-14T16:23:47.982Z,0.98
2023-04-14T16:26:15.876Z,0.90
2023-04-14T16:28:42.767Z,1.45
2023-04-14T16:31:09.445Z,1.27
2023-04-14T16:33:36.105Z,1.70
2023-04-14T16:36:03.790Z,1.40
2023-04-14T16:38:30.572Z,1.00
2023-04-14T16:40:57.700Z,1.15
2023-04-14T16:43:24.758Z,0.80
2023-04-14T16:45:51.947Z,0.90
2023-04-14T16:48:18.869Z,1.38
2023-04-14T16:50:48.618Z,0.90
2023-04-14T16:53:15.205Z,0.80
2023-04-14T16:55:41.883Z,0.80
2023-04-14T16:58:09.691Z,0.90
2023-04-14T17:00:36.950Z,1.40
2023-04-14T17:03:03.658Z,0.68
2023-04-14T17:05:30.317Z,0.70
2023-04-14T17:07:56.915Z,0.65
2023-04-14T17:10:23.454Z,1.10
2023-04-14T17:12:50.010Z,0.70
2023-04-14T17:15:17.189Z,1.20
2023-04-14T17:17:46.225Z,0.60
2023-04-14T17:20:14.911Z,0.90
2023-04-14T17:22:41.871Z,0.77
2023-04-14T17:25:08.569Z,0.50
2023-04-14T17:27:35.096Z,0.70
2023-04-14T17:30:03.272Z,0.68
2023-04-14T17:32:29.847Z,1.05
2023-04-14T17:34:56.623Z,0.95
2023-04-14T17:37:23.537Z,0.40
2023-04-14T17:39:50.170Z,0.40
2023-04-14T17:42:17.019Z,0.47
2023-04-14T17:44:43.714Z,0.70
2023-04-14T17:47:15.293Z,0.60
2023-04-14T17:49:42.798Z,0.40
2023-04-14T17:52:17.080Z,0.50
2023-04-14T17:54:44.365Z,0.73
2023-04-14T17:57:13.142Z,0.68
2023-04-14T17:59:41.734Z,0.70
2023-04-14T18:02:08.899Z,0.60
2023-04-14T18:04:35.878Z,0.55
2023-04-14T18:07:02.392Z,0.50
2023-04-14T18:09:29.059Z,0.50
2023-04-14T18:11:56.177Z,0.63
2023-04-14T18:14:22.846Z,0.80
2023-04-14T18:16:49.311Z,0.60
2023-04-14T18:19:15.944Z,1.00
2023-04-14T18:21:44.888Z,0.93
2023-04-14T18:26:42.152Z,1.02
2023-04-14T18:29:08.664Z,0.45
2023-04-14T18:31:35.318Z,0.57
2023-04-14T18:34:03.913Z,0.60
2023-04-14T18:36:32.419Z,0.80
2023-04-14T18:38:59.912Z,0.50
2023-04-14T18:41:26.985Z,0.60
2023-04-14T18:43:53.691Z,0.60
2023-04-14T18:46:21.386Z,0.60
2023-04-14T18:48:48.537Z,0.75
2023-04-14T18:51:15.994Z,0.82
2023-04-14T18:53:44.660Z,0.70
2023-04-14T18:56:11.316Z,0.65
2023-04-14T18:58:38.277Z,0.50
2023-04-14T19:01:04.771Z,0.70
2023-04-14T19:05:58.968Z,0.30
2023-04-14T19:08:25.675Z,0.70
2023-04-14T19:10:52.493Z,1.00
2023-04-14T19:18:12.555Z,0.30
2023-04-14T19:20:39.074Z,0.60
